Ketchikan International Airport
PAKT : now visible

Airfield :











YOU CAN JOIN US ON...

 
LOGIN :

Register | Disclaimer

   EN    FR    IT 

 









Legend :    VFR   Marginal VFR   IFR   Intensive IFR   Very Intensive IFR
Visi :
Ceiling :
>= 8 km
>= 3000ft
5 to 8 km
1000 to 3000 ft
1500m to 5 km
500 to 1000 ft
800 to 1500m
200 to 500 ft
< 800m
< 200 ft
Symbols :   Thunderstorms  Fog  Heavy snow  Heavy precipitations  Wind > 20 kt






- Airport Elevation : 89 ft
- IATA code : KTN


PAKT - Ketchikan International

CURRENT METAR :
  • 261753Z 11008KT 10SM SCT012 BKN060 12/11 A2984 RMK AO2 RAE1657 SLP107 HARBOR WND 10006KT P0000 60000 T01170106 10117 20089 51028

EXPIRED METARs :
  • 261653Z 16004KT 10SM -RA SCT012 BKN070 11/10 A2982 RMK AO2 RAB44 SLP098 HARBOR WND 11005KT P0000 T01060100
  • 261553Z 14006KT 10SM SCT026 BKN085 09/08 A2979 RMK AO2 SLP087 HARBOR WIND 09006KT T00940083

TAF PAKT
Valid from the 26 at 18:00 until the 27 at 18:00 UTC


261722Z 2618/2718 13008KT P6SM VCSH FEW015 BKN050
FM270900 15017G24KT P6SM -RA FEW010 OVC050 WS020/16045KT
FM271500 14028G38KT 4SM -RA BR SCT015 OVC025 WS020/16060KT AMD LTD TO CLD VIS AND WIND 2706/2715
PAZA FIR / North America



MET'MAP, your aeronautical weather chart ! - Copyright ORBIFLY December 2007 - Disclaimer

ORBIFLY MET'MAP TEAM :

Programming & Development : Alexandra Zaïnal
Concept & original design : Baudouin d'Aumeries
Assistance for programming : Marc-Olivier Méhu
Technical & hardware support : Manuel Goepfert

Contact : metmap@orbifly.com




SOURCES & CREDITS :

   NOAA       Earth
Advisory